Time;durP1;ratioP1;P1;durP2;ratioP2;P2;SDS_P1;SDS_P2;PMS_P1;PMS_P2;Temp;Humidity;BMP_temperature;BMP_pressure;BME280_temperature;BME280_humidity;BME280_pressure;Samples;Min_cycle;Max_cycle;Signal;HPM_P1;HPM_P2
2021/09/17 00:01:51;;;;;;;10.80;7.40;;;;;;;17.04;65.42;98619.90;112567;1190;60825;-21
2021/09/17 00:04:19;;;;;;;12.90;7.40;;;;;;;16.85;65.92;98616.32;112578;1190;75091;-21
2021/09/17 00:06:50;;;;;;;10.10;5.30;;;;;;;16.71;66.68;98611.70;112527;1190;74740;-21
2021/09/17 00:09:20;;;;;;;8.80;5.10;;;;;;;17.19;66.59;98612.77;112341;1190;73781;-22
2021/09/17 00:11:50;;;;;;;8.70;5.40;;;;;;;17.74;64.91;98607.81;112481;1190;61223;-22
2021/09/17 00:14:38;;;;;;;10.10;6.20;;;;;;;17.78;64.57;98603.25;112346;1193;62826;-22
2021/09/17 00:17:10;;;;;;;10.60;6.40;;;;;;;17.59;65.17;98600.70;112364;1192;74958;-23
2021/09/17 00:19:47;;;;;;;15.50;6.80;;;;;;;17.34;65.53;98600.09;112376;1191;74643;-20
2021/09/17 00:22:15;;;;;;;10.80;6.80;;;;;;;17.10;66.83;98597.64;112549;1190;74247;-23
2021/09/17 00:24:44;;;;;;;12.60;7.30;;;;;;;16.89;67.14;98601.84;112405;1193;61229;-23
2021/09/17 00:27:32;;;;;;;8.80;5.10;;;;;;;16.74;67.71;98603.34;112437;1190;62794;-19
2021/09/17 00:30:01;;;;;;;10.10;5.40;;;;;;;17.28;66.96;98599.34;112469;1192;74326;-27
2021/09/17 00:32:29;;;;;;;10.70;5.80;;;;;;;17.85;65.53;98597.94;112454;1190;74783;-24
2021/09/17 00:34:58;;;;;;;8.50;5.70;;;;;;;17.90;65.25;98593.59;112448;1190;72248;-26
2021/09/17 00:37:26;;;;;;;10.70;6.00;;;;;;;17.73;65.03;98590.91;112432;1190;60806;-24
2021/09/17 00:39:54;;;;;;;11.90;6.50;;;;;;;17.47;65.68;98586.59;112427;1190;60841;-22
2021/09/17 00:42:23;;;;;;;11.40;6.10;;;;;;;17.21;66.13;98585.70;112465;1190;75428;-22
2021/09/17 00:44:51;;;;;;;12.70;6.70;;;;;;;16.98;66.62;98582.45;112468;1190;75624;-22
2021/09/17 00:47:19;;;;;;;14.10;7.90;;;;;;;16.77;66.97;98582.70;112456;1190;72737;-23
2021/09/17 00:49:48;;;;;;;24.30;12.60;;;;;;;16.62;68.02;98581.09;112480;1190;62519;-23
2021/09/17 00:52:21;;;;;;;;;;;;;;;17.11;67.83;98580.05;112460;1191;60831;-23
2021/09/17 00:54:49;;;;;;;21.60;12.70;;;;;;;17.62;66.05;98570.85;112424;1193;75201;-23
2021/09/17 00:57:18;;;;;;;21.00;10.70;;;;;;;17.67;66.18;98570.01;112424;1190;75665;-24
2021/09/17 00:59:47;;;;;;;13.90;9.10;;;;;;;17.51;66.00;98565.19;112518;1190;74023;-24
2021/09/17 01:02:16;;;;;;;14.00;8.40;;;;;;;17.29;66.65;98559.58;112504;1190;60838;-22
2021/09/17 01:04:44;;;;;;;14.40;8.30;;;;;;;17.06;66.62;98557.08;112547;1190;61377;-25
2021/09/17 01:07:32;;;;;;;15.80;8.50;;;;;;;16.79;67.15;98555.92;112489;1190;76403;-23
2021/09/17 01:10:04;;;;;;;19.30;8.80;;;;;;;16.58;67.53;98553.83;112547;1190;75637;-25
2021/09/17 01:12:33;;;;;;;15.10;6.30;;;;;;;16.42;68.47;98552.60;112421;1190;74228;-27
2021/09/17 01:15:04;;;;;;;15.90;7.40;;;;;;;16.89;68.00;98547.11;112410;1190;60841;-24
2021/09/17 01:17:37;;;;;;;15.80;7.00;;;;;;;17.43;66.46;98545.94;112465;1193;61394;-25
2021/09/17 01:20:06;;;;;;;;;;;;;;;17.45;66.33;98540.31;112415;1192;74173;-23
2021/09/17 01:22:34;;;;;;;12.20;7.40;;;;;;;17.28;66.43;98532.94;112297;1177;75626;-26
2021/09/17 01:25:23;;;;;;;19.80;8.60;;;;;;;17.06;67.14;98530.44;112377;1190;75433;-24
2021/09/17 01:28:11;;;;;;;15.00;8.80;;;;;;;16.79;68.16;98532.70;112392;1190;60850;-25
2021/09/17 01:30:59;;;;;;;12.60;8.40;;;;;;;16.52;68.89;98528.84;112520;1190;61820;-25
2021/09/17 01:33:42;;;;;;;14.60;8.90;;;;;;;16.33;69.60;98528.60;112471;1190;75233;-24
2021/09/17 01:36:11;;;;;;;10.60;6.40;;;;;;;16.24;69.70;98529.48;112528;1190;75444;-23
2021/09/17 01:38:40;;;;;;;11.10;6.70;;;;;;;16.80;68.57;98529.89;112484;1192;74311;-23
2021/09/17 01:41:09;;;;;;;14.90;8.30;;;;;;;17.43;67.00;98518.89;112326;1190;60821;-23
2021/09/17 01:43:38;;;;;;;11.20;7.10;;;;;;;17.50;66.78;98515.98;112562;1190;60793;-23
2021/09/17 01:46:09;;;;;;;12.40;7.10;;;;;;;17.41;66.50;98516.26;112557;1190;74078;-23
2021/09/17 01:48:38;;;;;;;12.50;7.60;;;;;;;17.19;66.39;98508.25;112542;1190;75255;-23
2021/09/17 01:51:37;;;;;;;10.10;7.10;;;;;;;16.94;67.13;98501.30;110460;1208;599648;-21
2021/09/17 01:54:25;;;;;;;14.80;7.10;;;;;;;16.65;67.48;98496.55;111778;1196;61174;-22
2021/09/17 01:56:53;;;;;;;13.10;7.40;;;;;;;16.42;67.89;98492.89;111853;1195;60916;-21
2021/09/17 01:59:22;;;;;;;8.30;5.10;;;;;;;16.25;68.75;98484.89;111821;1196;73205;-21
2021/09/17 02:01:51;;;;;;;12.90;5.80;;;;;;;16.74;68.75;98479.77;111763;1196;74779;-22
2021/09/17 02:04:19;;;;;;;15.40;7.30;;;;;;;17.30;67.05;98478.02;112201;1192;73368;-21
2021/09/17 02:06:48;;;;;;;23.20;9.40;;;;;;;17.36;66.40;98472.27;112268;1193;60834;-22
2021/09/17 02:09:36;;;;;;;30.70;11.70;;;;;;;17.17;66.59;98472.00;112219;1192;63013;-22
2021/09/17 02:12:06;;;;;;;33.40;12.20;;;;;;;16.95;67.27;98470.41;112291;1193;72623;-21
2021/09/17 02:14:34;;;;;;;15.80;8.00;;;;;;;16.73;67.45;98466.89;112138;1193;75795;-22
2021/09/17 02:17:06;;;;;;;14.20;7.00;;;;;;;16.49;67.76;98460.18;112260;1192;74739;-21
2021/09/17 02:19:35;;;;;;;9.10;6.80;;;;;;;16.27;68.53;98456.10;112245;1192;60795;-22
2021/09/17 02:22:05;;;;;;;9.10;4.90;;;;;;;16.11;69.40;98449.69;112191;1192;61511;-22
2021/09/17 02:24:34;;;;;;;9.60;5.50;;;;;;;16.60;69.18;98444.78;112121;1193;75493;-21
2021/09/17 02:27:02;;;;;;;12.70;6.80;;;;;;;17.14;67.58;98438.33;112188;1192;75705;-22
2021/09/17 02:29:31;;;;;;;8.70;5.40;;;;;;;17.17;66.89;98437.85;112176;1192;73267;-22
2021/09/17 02:31:59;;;;;;;11.20;6.80;;;;;;;16.99;66.92;98432.94;112113;1193;61403;-22
2021/09/17 02:34:27;;;;;;;8.20;5.70;;;;;;;16.73;67.72;98436.04;112247;1192;61713;-22
2021/09/17 02:36:56;;;;;;;9.70;6.80;;;;;;;16.43;68.21;98430.25;112190;1192;73548;-22
2021/09/17 02:39:24;;;;;;;12.30;6.50;;;;;;;16.16;68.68;98433.54;112219;1192;74857;-21
2021/09/17 02:41:52;;;;;;;11.30;5.40;;;;;;;15.97;69.71;98429.40;112245;1192;73763;-22
2021/09/17 02:44:21;;;;;;;9.80;5.30;;;;;;;16.38;69.67;98423.00;112269;1193;60806;-22
2021/09/17 02:46:49;;;;;;;7.80;5.00;;;;;;;16.86;67.81;98418.63;112219;1192;60768;-21
2021/09/17 02:49:19;;;;;;;10.30;5.30;;;;;;;16.89;67.22;98409.80;112246;1192;74299;-22
2021/09/17 02:51:51;;;;;;;8.60;5.90;;;;;;;16.69;67.18;98406.34;112292;1193;75579;-21
2021/09/17 02:54:19;;;;;;;11.30;6.70;;;;;;;16.42;67.78;98403.00;112231;1192;73027;-21
2021/09/17 02:56:47;;;;;;;10.60;6.40;;;;;;;16.17;68.77;98402.47;112253;1192;61707;-22
2021/09/17 02:59:17;;;;;;;10.30;6.60;;;;;;;15.93;68.96;98402.52;112243;1193;60806;-21
2021/09/17 03:01:46;;;;;;;9.90;5.80;;;;;;;15.75;69.71;98400.85;112262;1193;73370;-21
2021/09/17 03:04:14;;;;;;;12.00;6.50;;;;;;;16.16;69.66;98394.58;112219;1193;74648;-22
2021/09/17 03:06:43;;;;;;;14.40;7.70;;;;;;;16.68;67.97;98390.52;112242;1192;73030;-21
2021/09/17 03:09:12;;;;;;;15.80;8.30;;;;;;;16.74;67.61;98389.21;112162;1192;60818;-22
2021/09/17 03:11:40;;;;;;;12.40;8.00;;;;;;;16.54;67.64;98387.97;112201;1192;60736;-22
2021/09/17 03:14:10;;;;;;;13.40;9.00;;;;;;;16.29;68.03;98382.49;112260;1195;73855;-21
2021/09/17 03:16:38;;;;;;;15.20;8.30;;;;;;;16.03;68.57;98376.81;112224;1192;74901;-22
2021/09/17 03:19:08;;;;;;;12.20;7.40;;;;;;;15.80;69.46;98383.13;112222;1192;74714;-21
2021/09/17 03:21:41;;;;;;;9.80;6.00;;;;;;;15.62;70.04;98386.01;112192;1193;62397;-22
2021/09/17 03:24:09;;;;;;;10.70;6.10;;;;;;;16.08;69.83;98379.41;112241;1192;60778;-22
2021/09/17 03:26:57;;;;;;;10.20;5.90;;;;;;;16.63;67.88;98380.82;112207;1192;74474;-22
2021/09/17 03:29:26;;;;;;;10.90;5.60;;;;;;;16.64;67.63;98379.36;112264;1192;75455;-22
2021/09/17 03:31:54;;;;;;;9.70;6.20;;;;;;;16.46;67.78;98383.81;112216;1192;73048;-22
2021/09/17 03:34:22;;;;;;;10.60;5.70;;;;;;;16.20;68.18;98385.41;112232;1192;60794;-22
2021/09/17 03:36:50;;;;;;;9.00;5.50;;;;;;;15.93;68.95;98386.94;112169;1193;60915;-22
2021/09/17 03:39:19;;;;;;;11.00;6.50;;;;;;;15.69;69.98;98389.77;112207;1193;74092;-21
2021/09/17 03:41:47;;;;;;;7.60;5.00;;;;;;;15.54;70.32;98386.25;112240;1192;75616;-21
2021/09/17 03:44:16;;;;;;;9.30;4.90;;;;;;;15.99;69.53;98383.27;112228;1192;73957;-22
2021/09/17 03:46:44;;;;;;;8.40;5.00;;;;;;;16.43;68.24;98387.12;112285;1192;61492;-22
2021/09/17 03:49:16;;;;;;;7.40;5.10;;;;;;;16.44;67.50;98388.92;112275;1192;61655;-22
2021/09/17 03:51:44;;;;;;;10.50;5.60;;;;;;;16.25;68.39;98388.67;112279;1186;73175;-22
2021/09/17 03:54:12;;;;;;;11.10;5.40;;;;;;;16.03;68.69;98382.01;112228;1192;74795;-21
2021/09/17 03:56:42;;;;;;;11.20;5.60;;;;;;;15.81;69.18;98383.13;112289;1193;73798;-21
2021/09/17 03:59:11;;;;;;;8.60;5.50;;;;;;;15.61;69.59;98381.34;112269;1192;61529;-24
2021/09/17 04:01:39;;;;;;;9.00;5.20;;;;;;;15.48;70.00;98381.79;112228;1193;60889;-22
2021/09/17 04:04:08;;;;;;;6.60;4.30;;;;;;;15.99;69.77;98376.92;112274;1194;74374;-22
2021/09/17 04:06:37;;;;;;;6.40;4.80;;;;;;;16.53;68.02;98376.23;112257;1193;75670;-21
2021/09/17 04:09:05;;;;;;;8.30;5.60;;;;;;;16.57;67.61;98371.92;112201;1192;73209;-22
2021/09/17 04:11:34;;;;;;;15.50;6.50;;;;;;;16.38;67.82;98375.64;112279;1192;60944;-22
2021/09/17 04:14:03;;;;;;;15.00;6.80;;;;;;;16.12;68.46;98373.22;112259;1192;60859;-22
2021/09/17 04:16:32;;;;;;;10.90;6.50;;;;;;;15.89;69.25;98376.23;112231;1192;73352;-21
2021/09/17 04:19:00;;;;;;;10.00;6.50;;;;;;;15.66;70.06;98371.05;112088;1194;75434;-22
2021/09/17 04:21:32;;;;;;;7.50;3.80;;;;;;;15.56;70.18;98365.70;112264;1192;72516;-21
2021/09/17 04:24:01;;;;;;;11.40;6.80;;;;;;;16.06;69.99;98361.98;112214;1192;60892;-21
2021/09/17 04:26:29;;;;;;;12.40;6.20;;;;;;;16.51;68.72;98356.66;112246;1192;62243;-21
2021/09/17 04:28:57;;;;;;;12.40;6.00;;;;;;;16.47;68.90;98354.67;112522;1193;74333;-23
2021/09/17 04:31:26;;;;;;;12.10;7.10;;;;;;;16.27;69.42;98354.91;112298;1193;75676;-23
2021/09/17 04:33:55;;;;;;;12.50;6.90;;;;;;;15.98;70.78;98345.70;112248;1193;73832;-23
2021/09/17 04:36:23;;;;;;;12.20;6.20;;;;;;;15.70;71.93;98343.11;112267;1193;62367;-23
2021/09/17 04:38:51;;;;;;;11.60;6.30;;;;;;;15.95;72.49;98344.27;112204;1193;60920;-23
2021/09/17 04:41:20;;;;;;;10.80;6.30;;;;;;;16.25;71.61;98342.52;112207;1183;73383;-23
2021/09/17 04:43:50;;;;;;;10.60;6.50;;;;;;;16.15;72.18;98342.25;112198;1192;76389;-23
2021/09/17 04:46:18;;;;;;;12.00;7.20;;;;;;;15.91;72.81;98337.55;112243;1193;72862;-22
2021/09/17 04:48:47;;;;;;;9.40;6.70;;;;;;;15.68;73.79;98333.87;112275;1193;60805;-23
2021/09/17 04:51:15;;;;;;;7.20;5.00;;;;;;;15.49;73.83;98330.42;112190;1193;61311;-23
2021/09/17 04:53:44;;;;;;;8.80;5.10;;;;;;;15.90;74.05;98319.98;112236;1192;74366;-23
2021/09/17 04:56:12;;;;;;;12.90;5.90;;;;;;;16.39;72.64;98317.38;112159;1193;74659;-22
2021/09/17 04:58:44;;;;;;;10.90;5.70;;;;;;;16.39;72.54;98319.32;112213;1192;74162;-23
2021/09/17 05:01:12;;;;;;;9.50;5.90;;;;;;;16.15;72.48;98319.29;112250;1193;61481;-22
2021/09/17 05:03:43;;;;;;;13.60;6.50;;;;;;;15.87;73.75;98318.80;112271;1193;60876;-24
2021/09/17 05:06:11;;;;;;;7.80;4.60;;;;;;;15.66;74.37;98306.30;112175;1192;74157;-24
2021/09/17 05:08:40;;;;;;;9.60;5.90;;;;;;;16.04;74.46;98310.19;112123;1193;75572;-24
2021/09/17 05:11:08;;;;;;;10.50;5.80;;;;;;;16.54;72.89;98312.45;112456;1184;73842;-24
2021/09/17 05:13:36;;;;;;;10.00;5.10;;;;;;;16.59;72.73;98316.48;112236;1193;60839;-24
2021/09/17 05:16:06;;;;;;;9.10;5.90;;;;;;;16.41;72.67;98312.04;112234;1192;60929;-24
2021/09/17 05:18:35;;;;;;;9.90;6.20;;;;;;;16.18;73.45;98306.73;112227;1193;74387;-23
2021/09/17 05:21:04;;;;;;;9.00;4.90;;;;;;;15.98;74.48;98307.63;112196;1193;75970;-23
2021/09/17 05:23:39;;;;;;;8.20;4.80;;;;;;;16.44;74.44;98304.22;112223;1193;74317;-23
2021/09/17 05:26:11;;;;;;;8.40;5.00;;;;;;;16.95;72.56;98303.70;112161;1194;60812;-23
2021/09/17 05:28:59;;;;;;;8.80;5.50;;;;;;;16.92;72.41;98302.45;112240;1187;62844;-23
2021/09/17 05:31:29;;;;;;;12.60;5.70;;;;;;;16.68;72.63;98300.70;112233;1193;74411;-23
2021/09/17 05:33:58;;;;;;;7.90;5.50;;;;;;;16.39;73.56;98302.49;112217;1192;75753;-23
2021/09/17 05:36:26;;;;;;;4.50;3.00;;;;;;;16.18;74.77;98304.59;112476;1196;73844;-23
2021/09/17 05:38:55;;;;;;;8.90;5.40;;;;;;;16.19;75.18;98310.58;112236;1192;60877;-23
2021/09/17 05:41:24;;;;;;;12.00;5.40;;;;;;;16.42;73.88;98313.41;112221;1192;60774;-24
2021/09/17 05:44:13;;;;;;;9.30;7.00;;;;;;;16.31;74.11;98314.14;112174;1192;73773;-23
2021/09/17 05:46:41;;;;;;;9.90;6.30;;;;;;;15.98;75.39;98310.52;112517;1192;74690;-23
2021/09/17 05:49:12;;;;;;;6.90;4.10;;;;;;;15.78;76.61;98307.78;112224;1192;72978;-23
2021/09/17 05:51:51;;;;;;;10.40;4.90;;;;;;;16.12;75.87;98304.61;112227;1192;60793;-23
2021/09/17 05:54:20;;;;;;;6.70;4.40;;;;;;;16.18;75.69;98306.69;112271;1187;61641;-23
2021/09/17 05:56:48;;;;;;;7.80;5.20;;;;;;;15.87;77.20;98303.80;112211;1193;74245;-23
2021/09/17 05:59:17;;;;;;;9.10;4.40;;;;;;;15.81;76.55;98296.54;112291;1192;75615;-23
2021/09/17 06:01:45;;;;;;;11.40;5.30;;;;;;;15.73;77.09;98292.32;112237;1192;72002;-23
2021/09/17 06:04:33;;;;;;;12.20;5.00;;;;;;;16.15;76.10;98284.06;112205;1192;60891;-23
2021/09/17 06:07:02;;;;;;;9.80;5.60;;;;;;;16.39;75.28;98285.88;112278;1193;60840;-23
2021/09/17 06:09:33;;;;;;;8.90;4.80;;;;;;;16.30;75.52;98281.35;112263;1193;75382;-23
2021/09/17 06:12:04;;;;;;;13.70;6.10;;;;;;;16.09;75.86;98279.83;112179;1193;75783;-23
2021/09/17 06:14:32;;;;;;;10.90;4.80;;;;;;;16.01;76.54;98280.17;112140;1192;72298;-23
2021/09/17 06:17:21;;;;;;;6.90;4.90;;;;;;;16.70;75.48;98277.49;112211;1192;61630;-23
2021/09/17 06:19:52;;;;;;;11.70;5.90;;;;;;;17.19;73.66;98278.04;112427;1192;62283;-23
2021/09/17 06:22:20;;;;;;;15.70;5.10;;;;;;;17.24;73.17;98280.02;112257;1192;74414;-23
2021/09/17 06:24:49;;;;;;;17.30;5.50;;;;;;;17.04;73.57;98278.09;112188;1192;75825;-23
2021/09/17 06:27:18;;;;;;;13.40;5.70;;;;;;;16.90;74.22;98278.59;112194;1194;74054;-23
2021/09/17 06:29:48;;;;;;;11.70;5.00;;;;;;;16.87;74.89;98270.95;112195;1193;62323;-23
2021/09/17 06:32:16;;;;;;;10.50;4.40;;;;;;;17.47;74.08;98259.15;112169;1177;61651;-23
2021/09/17 06:34:47;;;;;;;11.70;5.40;;;;;;;18.07;72.25;98251.28;112239;1193;75175;-23
2021/09/17 06:37:15;;;;;;;9.60;4.40;;;;;;;18.16;71.66;98251.22;112214;1193;75489;-23
2021/09/17 06:39:46;;;;;;;9.30;5.40;;;;;;;18.08;71.66;98252.23;112207;1193;73575;-23
2021/09/17 06:42:14;;;;;;;7.70;5.60;;;;;;;17.83;72.35;98249.23;112224;1192;61505;-23
2021/09/17 06:44:43;;;;;;;8.70;6.00;;;;;;;17.63;72.24;98248.59;112434;1193;60820;-23
2021/09/17 06:47:12;;;;;;;7.40;5.10;;;;;;;17.46;72.96;98246.96;112261;1193;74909;-23
2021/09/17 06:49:40;;;;;;;9.80;5.10;;;;;;;17.88;73.06;98239.75;112240;1193;75576;-23
2021/09/17 06:52:09;;;;;;;7.90;4.80;;;;;;;18.27;71.75;98236.64;112226;1192;73822;-24
2021/09/17 06:54:39;;;;;;;13.50;5.70;;;;;;;18.33;70.83;98234.52;112187;1193;60825;-23
2021/09/17 06:57:27;;;;;;;8.10;5.90;;;;;;;18.22;71.95;98237.60;112234;1192;62796;-23
2021/09/17 06:59:56;;;;;;;8.50;6.00;;;;;;;18.12;71.80;98233.77;112284;1193;74894;-23
2021/09/17 07:02:25;;;;;;;11.40;6.30;;;;;;;18.03;72.32;98228.98;112219;1193;75292;-23
2021/09/17 07:04:54;;;;;;;8.20;5.50;;;;;;;18.48;72.07;98224.36;112250;1192;73186;-23
2021/09/17 07:07:24;;;;;;;10.00;5.70;;;;;;;18.96;70.31;98231.07;112157;1194;60945;-23
2021/09/17 07:09:53;;;;;;;9.80;5.90;;;;;;;19.04;69.68;98235.73;112251;1193;60802;-23
2021/09/17 07:12:23;;;;;;;12.50;6.00;;;;;;;18.77;70.12;98241.23;112274;1193;75024;-23
2021/09/17 07:14:51;;;;;;;10.30;6.40;;;;;;;18.54;70.95;98237.63;112241;1193;75295;-23
2021/09/17 07:17:19;;;;;;;9.10;5.10;;;;;;;18.34;72.07;98237.25;112298;1193;73149;-23
2021/09/17 07:19:48;;;;;;;8.40;5.50;;;;;;;18.62;71.31;98240.63;112244;1193;60818;-23
2021/09/17 07:22:17;;;;;;;16.10;6.80;;;;;;;18.76;71.11;98235.27;112258;1192;60942;-23
2021/09/17 07:24:45;;;;;;;8.20;5.50;;;;;;;18.78;71.82;98236.12;112232;1192;74008;-23
2021/09/17 07:27:14;;;;;;;14.30;6.00;;;;;;;18.54;71.85;98241.67;112178;1193;75798;-23
2021/09/17 07:29:42;;;;;;;4.90;3.70;;;;;;;18.49;72.34;98245.44;112263;1193;72983;-23
2021/09/17 07:32:10;;;;;;;10.10;4.60;;;;;;;18.63;72.21;98244.64;112203;1193;62065;-23
2021/09/17 07:34:39;;;;;;;7.40;5.00;;;;;;;19.38;70.98;98243.73;112158;1193;60848;-22
2021/09/17 07:37:07;;;;;;;10.70;5.80;;;;;;;19.74;68.32;98238.20;112139;1193;74353;-22
2021/09/17 07:39:36;;;;;;;9.80;5.80;;;;;;;19.10;70.11;98234.93;112161;1193;73759;-22
2021/09/17 07:42:04;;;;;;;12.80;6.90;;;;;;;18.60;71.29;98235.77;112234;1192;73831;-22
2021/09/17 07:44:32;;;;;;;11.30;6.30;;;;;;;18.51;72.40;98233.11;112255;1193;61927;-22
2021/09/17 07:47:01;;;;;;;7.10;4.80;;;;;;;18.68;72.24;98224.73;112229;1193;60773;-22
2021/09/17 07:49:29;;;;;;;15.90;6.70;;;;;;;19.32;70.99;98225.73;112247;1193;75038;-22
2021/09/17 07:51:58;;;;;;;9.80;5.40;;;;;;;19.82;68.95;98227.08;112202;1193;75668;-22
2021/09/17 07:54:27;;;;;;;11.10;5.40;;;;;;;19.94;68.36;98229.20;112267;1192;73347;-22
2021/09/17 07:56:55;;;;;;;9.90;5.50;;;;;;;19.87;68.63;98224.67;112206;1193;60817;-24
2021/09/17 07:59:27;;;;;;;9.20;5.50;;;;;;;19.81;69.53;98224.55;112250;1192;60832;-22
2021/09/17 08:01:55;;;;;;;10.20;5.80;;;;;;;19.81;69.30;98228.39;112278;1192;75652;-23
2021/09/17 08:04:24;;;;;;;6.30;4.10;;;;;;;19.82;69.82;98227.80;112253;1192;75600;-23
2021/09/17 08:06:53;;;;;;;9.80;5.40;;;;;;;20.28;68.39;98235.24;112221;1193;73891;-23
2021/09/17 08:09:21;;;;;;;8.90;5.30;;;;;;;20.54;66.97;98236.37;112266;1192;60883;-23
2021/09/17 08:11:50;;;;;;;8.50;5.30;;;;;;;20.52;67.68;98238.34;112261;1192;60904;-23
2021/09/17 08:14:18;;;;;;;10.40;6.00;;;;;;;20.44;67.28;98235.81;112286;1192;76326;-23
2021/09/17 08:16:47;;;;;;;10.90;6.00;;;;;;;20.11;68.19;98226.27;112171;1193;73689;-23
2021/09/17 08:19:15;;;;;;;9.30;5.80;;;;;;;19.35;70.15;98223.18;112232;1193;73041;-23
2021/09/17 08:21:43;;;;;;;13.40;5.50;;;;;;;19.30;70.79;98223.46;112168;1193;63282;-24
2021/09/17 08:24:18;;;;;;;9.20;4.80;;;;;;;19.62;70.05;98217.94;112242;1192;60836;-23
2021/09/17 08:26:52;;;;;;;10.40;5.10;;;;;;;20.05;69.07;98216.31;112099;1193;75202;-23
2021/09/17 08:29:20;;;;;;;6.90;4.80;;;;;;;20.17;68.86;98213.61;112196;1193;74651;-23
2021/09/17 08:31:50;;;;;;;6.10;4.80;;;;;;;20.25;68.43;98214.23;112255;1193;73613;-22
2021/09/17 08:34:18;;;;;;;6.70;3.60;;;;;;;20.15;68.53;98220.37;112187;1193;60815;-22
2021/09/17 08:36:51;;;;;;;8.10;4.10;;;;;;;19.91;69.36;98219.05;112114;1193;60917;-22
2021/09/17 08:39:20;;;;;;;9.40;4.50;;;;;;;20.30;68.53;98214.79;112152;1193;73793;-22
2021/09/17 08:41:49;;;;;;;10.40;5.70;;;;;;;20.60;67.66;98213.38;112260;1187;74674;-22
2021/09/17 08:44:18;;;;;;;9.90;5.30;;;;;;;20.45;68.14;98212.52;112297;1192;72343;-22
2021/09/17 08:46:46;;;;;;;12.30;6.90;;;;;;;20.19;68.81;98213.45;112251;1193;60808;-22
2021/09/17 08:49:23;;;;;;;10.00;6.10;;;;;;;19.99;69.40;98213.05;112234;1192;61711;-22
2021/09/17 08:51:54;;;;;;;7.70;4.90;;;;;;;20.05;69.17;98206.98;112116;1193;74970;-22
2021/09/17 08:54:23;;;;;;;8.70;5.40;;;;;;;19.98;70.10;98206.87;112229;1192;75452;-22
2021/09/17 08:56:52;;;;;;;9.80;5.80;;;;;;;20.47;68.71;98206.83;112210;1187;74008;-22
2021/09/17 08:59:21;;;;;;;7.50;5.30;;;;;;;20.38;68.32;98204.02;112268;1192;61231;-22
2021/09/17 09:01:49;;;;;;;8.80;5.30;;;;;;;20.31;68.43;98204.63;112201;1193;60783;-22
2021/09/17 09:04:30;;;;;;;7.60;5.20;;;;;;;20.57;67.59;98199.79;112225;1192;74221;-22
2021/09/17 09:07:04;;;;;;;6.90;5.00;;;;;;;20.77;67.42;98196.45;112140;1193;74813;-22
2021/09/17 09:09:33;;;;;;;5.40;3.70;;;;;;;20.96;67.83;98190.70;112106;1193;73795;-22
2021/09/17 09:12:09;;;;;;;8.60;4.70;;;;;;;21.40;66.06;98182.86;112187;1193;60810;-22
2021/09/17 09:14:37;;;;;;;8.00;4.90;;;;;;;22.27;64.57;98182.84;112241;1192;60777;-23
2021/09/17 09:17:09;;;;;;;10.50;4.70;;;;;;;22.57;62.80;98177.35;112295;1192;75451;-23
2021/09/17 09:19:38;;;;;;;7.30;4.90;;;;;;;22.37;62.40;98175.16;112200;1193;74267;-23
2021/09/17 09:22:07;;;;;;;7.90;4.70;;;;;;;22.16;62.61;98179.66;112307;1193;73899;-23
2021/09/17 09:24:43;;;;;;;7.40;5.40;;;;;;;21.92;63.49;98176.34;112219;1192;60912;-23
2021/09/17 09:27:16;;;;;;;10.90;5.00;;;;;;;21.79;63.96;98176.02;112186;1193;60910;-23
2021/09/17 09:29:51;;;;;;;13.20;5.10;;;;;;;21.65;64.52;98173.30;112091;1193;75380;-23
2021/09/17 09:32:34;;;;;;;7.50;4.30;;;;;;;21.20;65.70;98168.94;112133;1193;75450;-23
2021/09/17 09:35:05;;;;;;;5.90;4.40;;;;;;;21.35;65.41;98167.80;112201;1193;72708;-23
2021/09/17 09:37:35;;;;;;;10.40;4.90;;;;;;;21.76;64.18;98166.80;112073;1187;61537;-22
2021/09/17 09:40:14;;;;;;;6.90;4.50;;;;;;;21.78;64.86;98166.81;112093;1193;61676;-23
2021/09/17 09:42:47;;;;;;;11.60;4.70;;;;;;;22.23;63.94;98166.48;112126;1192;75596;-22
2021/09/17 09:45:23;;;;;;;10.30;4.90;;;;;;;22.49;62.89;98162.81;112060;1193;75772;-23
2021/09/17 09:47:55;;;;;;;7.40;4.80;;;;;;;22.82;62.52;98159.86;112115;1193;74074;-23
2021/09/17 09:50:28;;;;;;;8.60;4.60;;;;;;;23.19;61.78;98154.86;112118;1193;60836;-23
2021/09/17 09:53:00;;;;;;;7.30;4.20;;;;;;;23.54;60.63;98152.70;112095;1193;60874;-23
2021/09/17 09:55:29;;;;;;;9.60;5.10;;;;;;;23.29;59.02;98151.95;112116;1193;73685;-25
2021/09/17 09:57:57;;;;;;;8.10;5.20;;;;;;;22.88;60.75;98152.55;112182;1193;75451;-23
2021/09/17 10:00:27;;;;;;;9.40;5.00;;;;;;;22.83;61.10;98151.17;112205;1192;74206;-23
2021/09/17 10:02:56;;;;;;;10.50;4.90;;;;;;;22.76;62.46;98152.76;112155;1193;60811;-23
2021/09/17 10:05:27;;;;;;;7.60;5.70;;;;;;;22.77;61.96;98153.08;112150;1193;60888;-23
2021/09/17 10:07:55;;;;;;;7.00;4.70;;;;;;;22.70;63.06;98150.15;112110;1193;75106;-23
2021/09/17 10:10:24;;;;;;;8.70;5.10;;;;;;;22.94;61.76;98147.94;112124;1193;75642;-22
2021/09/17 10:13:12;;;;;;;6.90;4.70;;;;;;;22.98;61.66;98147.70;112063;1193;74151;-22
2021/09/17 10:15:41;;;;;;;8.40;5.10;;;;;;;22.85;61.46;98146.67;112255;1193;61446;-22
2021/09/17 10:18:09;;;;;;;7.90;4.60;;;;;;;22.89;61.16;98141.11;112241;1193;60905;-22
2021/09/17 10:20:38;;;;;;;6.40;5.10;;;;;;;22.95;61.44;98138.52;112088;1193;73845;-22
2021/09/17 10:23:25;;;;;;;;;;;;;;;23.06;61.31;98136.10;112244;1193;75569;-22
2021/09/17 10:26:07;;;;;;;9.90;4.90;;;;;;;23.45;61.83;98132.20;112110;1193;73741;-22
2021/09/17 10:29:05;;;;;;;7.70;4.70;;;;;;;24.07;59.55;98133.36;112093;1194;60943;-22
2021/09/17 10:31:42;;;;;;;9.90;5.30;;;;;;;24.46;58.67;98125.64;112132;1192;60930;-23
2021/09/17 10:34:31;;;;;;;6.50;4.50;;;;;;;24.56;57.83;98117.89;112143;1193;74384;-22
2021/09/17 10:36:59;;;;;;;7.60;4.50;;;;;;;24.34;58.57;98116.04;112260;1192;74699;-23
2021/09/17 10:39:33;;;;;;;8.20;4.70;;;;;;;24.33;58.25;98114.05;112219;1192;72765;-23
2021/09/17 10:42:16;;;;;;;8.20;5.20;;;;;;;24.36;58.52;98111.36;112245;1193;60744;-23
2021/09/17 10:45:00;;;;;;;9.10;4.40;;;;;;;24.35;58.58;98116.75;112084;1193;60833;-23
2021/09/17 10:47:40;;;;;;;6.80;4.50;;;;;;;24.20;58.88;98114.90;112126;1193;73385;-23
2021/09/17 10:50:10;;;;;;;7.80;4.50;;;;;;;23.94;59.03;98114.64;112248;1192;72889;-23
2021/09/17 10:52:41;;;;;;;5.90;4.80;;;;;;;23.75;59.53;98110.73;112084;1193;72243;-22
2021/09/17 10:55:45;;;;;;;9.60;4.50;;;;;;;23.67;59.82;98109.98;112268;1193;60797;-22
2021/09/17 10:58:30;;;;;;;12.70;4.60;;;;;;;23.69;59.43;98111.88;112222;1193;60804;-24
2021/09/17 11:01:15;;;;;;;7.30;4.70;;;;;;;23.52;59.38;98110.20;112149;1192;73828;-23
2021/09/17 11:03:45;;;;;;;5.50;4.60;;;;;;;23.47;60.85;98107.33;112126;1193;75682;-23
2021/09/17 11:09:04;;;;;;;6.00;4.60;;;;;;;23.91;59.85;98099.05;112226;1193;60799;-23
2021/09/17 11:11:55;;;;;;;8.90;4.30;;;;;;;24.14;58.51;98096.12;112076;1192;62205;-23
2021/09/17 11:14:26;;;;;;;8.30;4.50;;;;;;;24.07;58.78;98094.34;112177;1193;74986;-23
2021/09/17 11:17:14;;;;;;;10.40;5.00;;;;;;;24.06;58.97;98090.64;112209;1192;76729;-23
2021/09/17 11:19:42;;;;;;;8.10;4.40;;;;;;;24.06;59.33;98092.77;112117;1193;73063;-23
2021/09/17 11:22:10;;;;;;;8.00;4.70;;;;;;;24.12;58.89;98094.44;112236;1193;61480;-23
2021/09/17 11:24:40;;;;;;;10.50;6.00;;;;;;;24.06;58.82;98090.11;112252;1192;60788;-23
2021/09/17 11:27:08;;;;;;;8.60;5.90;;;;;;;24.06;59.25;98087.77;112375;1193;74180;-25
2021/09/17 11:29:36;;;;;;;8.00;5.20;;;;;;;24.10;59.30;98084.80;112129;1193;74830;-22
2021/09/17 11:32:05;;;;;;;8.80;5.60;;;;;;;24.07;59.13;98078.91;112207;1193;72985;-22
2021/09/17 11:34:34;;;;;;;11.10;5.80;;;;;;;24.15;59.39;98081.30;112286;1193;61626;-22
2021/09/17 11:37:04;;;;;;;8.10;5.30;;;;;;;24.23;59.48;98073.85;112253;1192;60825;-22
2021/09/17 11:39:39;;;;;;;8.90;4.10;;;;;;;24.16;58.06;98070.61;112126;1193;73334;-22
2021/09/17 11:42:15;;;;;;;8.80;4.40;;;;;;;23.27;58.91;98073.10;112121;1193;74412;-22
2021/09/17 11:44:48;;;;;;;6.80;4.00;;;;;;;23.06;60.07;98075.65;112083;1193;74235;-23